sensor_id;sensor_type;location;lat;lon;timestamp;pressure;altitude;pressure_sealevel;temperature;humidity
83557;BME280;73523;55.740;13.276;2024-03-08T00:00:14;101883.09;;;23.45;27.79
83557;BME280;73523;55.740;13.276;2024-03-08T00:02:40;101875.88;;;23.44;27.68
83557;BME280;73523;55.740;13.276;2024-03-08T00:05:07;101878.41;;;23.45;27.87
83557;BME280;73523;55.740;13.276;2024-03-08T00:07:34;101874.81;;;23.45;27.90
83557;BME280;73523;55.740;13.276;2024-03-08T00:10:00;101873.72;;;23.46;28.13
83557;BME280;73523;55.740;13.276;2024-03-08T00:12:25;101867.13;;;23.47;27.72
83557;BME280;73523;55.740;13.276;2024-03-08T00:14:52;101867.13;;;23.47;27.97
83557;BME280;73523;55.740;13.276;2024-03-08T00:17:18;101875.19;;;23.48;27.65
83557;BME280;73523;55.740;13.276;2024-03-08T00:19:43;101867.72;;;23.49;27.72
83557;BME280;73523;55.740;13.276;2024-03-08T00:22:08;101864.97;;;23.49;28.01
83557;BME280;73523;55.740;13.276;2024-03-08T00:24:35;101864.75;;;23.50;27.63
83557;BME280;73523;55.740;13.276;2024-03-08T00:27:00;101869.22;;;23.51;27.71
83557;BME280;73523;55.740;13.276;2024-03-08T00:29:27;101864.28;;;23.53;27.93
83557;BME280;73523;55.740;13.276;2024-03-08T00:31:52;101860.69;;;23.53;27.96
83557;BME280;73523;55.740;13.276;2024-03-08T00:34:18;101862.94;;;23.56;27.45
83557;BME280;73523;55.740;13.276;2024-03-08T00:36:43;101854.41;;;23.57;27.41
83557;BME280;73523;55.740;13.276;2024-03-08T00:39:09;101856.09;;;23.58;27.44
83557;BME280;73523;55.740;13.276;2024-03-08T00:41:34;101860.56;;;23.59;27.68
83557;BME280;73523;55.740;13.276;2024-03-08T00:43:59;101856.72;;;23.60;27.74
83557;BME280;73523;55.740;13.276;2024-03-08T00:46:25;101854.16;;;23.59;27.61
83557;BME280;73523;55.740;13.276;2024-03-08T00:48:50;101854.41;;;23.57;27.77
83557;BME280;73523;55.740;13.276;2024-03-08T00:51:16;101848.03;;;23.57;27.63
83557;BME280;73523;55.740;13.276;2024-03-08T00:53:42;101845.25;;;23.57;27.62
83557;BME280;73523;55.740;13.276;2024-03-08T00:56:08;101845.25;;;23.57;27.64
83557;BME280;73523;55.740;13.276;2024-03-08T00:58:38;101835.63;;;23.59;27.70
83557;BME280;73523;55.740;13.276;2024-03-08T01:01:03;101842.25;;;23.58;27.68
83557;BME280;73523;55.740;13.276;2024-03-08T01:03:30;101833.94;;;23.58;27.68
83557;BME280;73523;55.740;13.276;2024-03-08T01:05:57;101834.78;;;23.59;27.73
83557;BME280;73523;55.740;13.276;2024-03-08T01:08:22;101832.03;;;23.59;27.70
83557;BME280;73523;55.740;13.276;2024-03-08T01:10:48;101834.78;;;23.59;27.62
83557;BME280;73523;55.740;13.276;2024-03-08T01:13:16;101830.09;;;23.59;27.58
83557;BME280;73523;55.740;13.276;2024-03-08T01:15:41;101831.78;;;23.60;27.48
83557;BME280;73523;55.740;13.276;2024-03-08T01:18:07;101827.09;;;23.61;27.49
83557;BME280;73523;55.740;13.276;2024-03-08T01:20:32;101826.03;;;23.62;27.36
83557;BME280;73523;55.740;13.276;2024-03-08T01:22:57;101825.19;;;23.61;27.61
83557;BME280;73523;55.740;13.276;2024-03-08T01:25:23;101813.25;;;23.61;27.79
83557;BME280;73523;55.740;13.276;2024-03-08T01:27:48;101815.78;;;23.62;27.34
83557;BME280;73523;55.740;13.276;2024-03-08T01:30:13;101816.88;;;23.61;27.75
83557;BME280;73523;55.740;13.276;2024-03-08T01:32:42;101805.81;;;23.61;27.55
83557;BME280;73523;55.740;13.276;2024-03-08T01:35:09;101811.34;;;23.61;27.57
83557;BME280;73523;55.740;13.276;2024-03-08T01:37:35;101801.34;;;23.60;27.68
83557;BME280;73523;55.740;13.276;2024-03-08T01:40:00;101800.25;;;23.61;27.75
83557;BME280;73523;55.740;13.276;2024-03-08T01:42:26;101806.88;;;23.60;27.38
83557;BME280;73523;55.740;13.276;2024-03-08T01:44:51;101795.19;;;23.58;27.75
83557;BME280;73523;55.740;13.276;2024-03-08T01:47:17;101803.03;;;23.61;27.22
83557;BME280;73523;55.740;13.276;2024-03-08T01:49:43;101793.88;;;23.61;27.76
83557;BME280;73523;55.740;13.276;2024-03-08T01:52:09;101799.66;;;23.59;27.50
83557;BME280;73523;55.740;13.276;2024-03-08T01:54:36;101796.88;;;23.59;27.65
83557;BME280;73523;55.740;13.276;2024-03-08T01:57:02;101796.66;;;23.61;27.21
83557;BME280;73523;55.740;13.276;2024-03-08T01:59:27;101794.97;;;23.60;27.35
83557;BME280;73523;55.740;13.276;2024-03-08T02:02:00;101781.72;;;23.62;27.49
83557;BME280;73523;55.740;13.276;2024-03-08T02:04:27;101781.72;;;23.62;27.73
83557;BME280;73523;55.740;13.276;2024-03-08T02:06:52;101782.56;;;23.62;27.57
83557;BME280;73523;55.740;13.276;2024-03-08T02:09:17;101788.97;;;23.63;27.56
83557;BME280;73523;55.740;13.276;2024-03-08T02:11:43;101776.19;;;23.62;27.55
83557;BME280;73523;55.740;13.276;2024-03-08T02:14:08;101772.34;;;23.63;27.46
83557;BME280;73523;55.740;13.276;2024-03-08T02:16:34;101771.50;;;23.62;27.17
83557;BME280;73523;55.740;13.276;2024-03-08T02:19:00;101773.19;;;23.63;27.22
83557;BME280;73523;55.740;13.276;2024-03-08T02:21:25;101777.03;;;23.62;27.54
83557;BME280;73523;55.740;13.276;2024-03-08T02:23:51;101767.06;;;23.61;27.38
83557;BME280;73523;55.740;13.276;2024-03-08T02:26:17;101761.50;;;23.61;27.53
83557;BME280;73523;55.740;13.276;2024-03-08T02:28:44;101762.34;;;23.62;27.34
83557;BME280;73523;55.740;13.276;2024-03-08T02:31:10;101762.72;;;23.65;27.05
83557;BME280;73523;55.740;13.276;2024-03-08T02:33:35;101765.50;;;23.65;27.23
83557;BME280;73523;55.740;13.276;2024-03-08T02:36:01;101759.69;;;23.67;27.20
83557;BME280;73523;55.740;13.276;2024-03-08T02:38:26;101757.75;;;23.67;27.04
83557;BME280;73523;55.740;13.276;2024-03-08T02:40:53;101761.13;;;23.69;27.21
83557;BME280;73523;55.740;13.276;2024-03-08T02:43:20;101752.59;;;23.71;26.60
83557;BME280;73523;55.740;13.276;2024-03-08T02:45:49;101754.28;;;23.72;27.39
83557;BME280;73523;55.740;13.276;2024-03-08T02:48:15;101746.59;;;23.74;27.29
83557;BME280;73523;55.740;13.276;2024-03-08T02:50:41;101745.75;;;23.74;27.34
83557;BME280;73523;55.740;13.276;2024-03-08T02:53:10;101742.72;;;23.75;27.16
83557;BME280;73523;55.740;13.276;2024-03-08T02:55:36;101746.34;;;23.76;27.06
83557;BME280;73523;55.740;13.276;2024-03-08T02:58:03;101746.34;;;23.76;27.45
83557;BME280;73523;55.740;13.276;2024-03-08T03:00:29;101751.88;;;23.76;26.99
83557;BME280;73523;55.740;13.276;2024-03-08T03:02:56;101744.06;;;23.73;27.35
83557;BME280;73523;55.740;13.276;2024-03-08T03:05:23;101739.13;;;23.75;27.32
83557;BME280;73523;55.740;13.276;2024-03-08T03:07:49;101728.88;;;23.75;27.42
83557;BME280;73523;55.740;13.276;2024-03-08T03:10:16;101734.66;;;23.74;26.99
83557;BME280;73523;55.740;13.276;2024-03-08T03:12:42;101728.53;;;23.72;27.38
83557;BME280;73523;55.740;13.276;2024-03-08T03:15:08;101729.13;;;23.74;27.10
83557;BME280;73523;55.740;13.276;2024-03-08T03:17:33;101723.00;;;23.72;27.11
83557;BME280;73523;55.740;13.276;2024-03-08T03:19:59;101727.22;;;23.74;27.40
83557;BME280;73523;55.740;13.276;2024-03-08T03:22:28;101723.59;;;23.74;27.42
83557;BME280;73523;55.740;13.276;2024-03-08T03:24:55;101721.66;;;23.74;27.09
83557;BME280;73523;55.740;13.276;2024-03-08T03:27:23;101721.66;;;23.74;27.00
83557;BME280;73523;55.740;13.276;2024-03-08T03:29:50;101720.81;;;23.74;27.00
83557;BME280;73523;55.740;13.276;2024-03-08T03:32:17;101715.28;;;23.74;27.24
83557;BME280;73523;55.740;13.276;2024-03-08T03:34:44;101721.66;;;23.74;27.22
83557;BME280;73523;55.740;13.276;2024-03-08T03:37:09;101715.28;;;23.74;27.17
83557;BME280;73523;55.740;13.276;2024-03-08T03:39:38;101709.75;;;23.74;27.26
83557;BME280;73523;55.740;13.276;2024-03-08T03:42:16;101714.44;;;23.73;27.04
83557;BME280;73523;55.740;13.276;2024-03-08T03:44:46;101706.97;;;23.74;27.40
83557;BME280;73523;55.740;13.276;2024-03-08T03:47:12;101709.50;;;23.75;27.04
83557;BME280;73523;55.740;13.276;2024-03-08T03:49:40;101708.44;;;23.76;27.23
83557;BME280;73523;55.740;13.276;2024-03-08T03:52:05;101705.66;;;23.76;27.08
83557;BME280;73523;55.740;13.276;2024-03-08T03:54:31;101707.34;;;23.77;27.25
83557;BME280;73523;55.740;13.276;2024-03-08T03:56:56;101707.09;;;23.79;27.11
83557;BME280;73523;55.740;13.276;2024-03-08T03:59:22;101702.13;;;23.81;27.06
83557;BME280;73523;55.740;13.276;2024-03-08T04:01:47;101707.44;;;23.82;27.00
83557;BME280;73523;55.740;13.276;2024-03-08T04:04:14;101704.66;;;23.82;26.69
83557;BME280;73523;55.740;13.276;2024-03-08T04:06:40;101704.44;;;23.84;26.85
83557;BME280;73523;55.740;13.276;2024-03-08T04:09:05;101701.66;;;23.84;27.15
83557;BME280;73523;55.740;13.276;2024-03-08T04:11:30;101696.97;;;23.84;27.01
83557;BME280;73523;55.740;13.276;2024-03-08T04:13:56;101698.06;;;23.83;26.88
83557;BME280;73523;55.740;13.276;2024-03-08T04:16:21;101693.34;;;23.84;26.98
83557;BME280;73523;55.740;13.276;2024-03-08T04:18:46;101685.03;;;23.84;26.94
83557;BME280;73523;55.740;13.276;2024-03-08T04:21:13;101689.50;;;23.85;26.89
83557;BME280;73523;55.740;13.276;2024-03-08T04:23:38;101679.50;;;23.84;26.88
83557;BME280;73523;55.740;13.276;2024-03-08T04:26:04;101675.91;;;23.83;27.05
83557;BME280;73523;55.740;13.276;2024-03-08T04:28:34;101678.66;;;23.83;27.13
83557;BME280;73523;55.740;13.276;2024-03-08T04:31:00;101676.97;;;23.82;27.33
83557;BME280;73523;55.740;13.276;2024-03-08T04:33:26;101675.06;;;23.83;26.99
83557;BME280;73523;55.740;13.276;2024-03-08T04:35:51;101672.03;;;23.84;26.85
83557;BME280;73523;55.740;13.276;2024-03-08T04:38:17;101673.72;;;23.85;26.81
83557;BME280;73523;55.740;13.276;2024-03-08T04:40:42;101670.97;;;23.85;26.88
83557;BME280;73523;55.740;13.276;2024-03-08T04:43:08;101670.97;;;23.85;27.23
83557;BME280;73523;55.740;13.276;2024-03-08T04:45:35;101667.34;;;23.85;27.27
83557;BME280;73523;55.740;13.276;2024-03-08T04:48:01;101659.03;;;23.85;26.78
83557;BME280;73523;55.740;13.276;2024-03-08T04:50:26;101665.44;;;23.85;27.06
83557;BME280;73523;55.740;13.276;2024-03-08T04:52:54;101667.34;;;23.85;26.95
83557;BME280;73523;55.740;13.276;2024-03-08T04:55:19;101667.13;;;23.86;27.08
83557;BME280;73523;55.740;13.276;2024-03-08T04:57:46;101661.81;;;23.85;26.98
83557;BME280;73523;55.740;13.276;2024-03-08T05:00:12;101662.66;;;23.85;28.49
83557;BME280;73523;55.740;13.276;2024-03-08T05:02:38;101664.53;;;23.96;28.54
83557;BME280;73523;55.740;13.276;2024-03-08T05:05:06;101663.59;;;24.02;28.49
83557;BME280;73523;55.740;13.276;2024-03-08T05:07:32;101666.34;;;24.02;27.97
83557;BME280;73523;55.740;13.276;2024-03-08T05:10:00;101659.38;;;24.00;27.79
83557;BME280;73523;55.740;13.276;2024-03-08T05:12:27;101657.09;;;23.97;28.11
83557;BME280;73523;55.740;13.276;2024-03-08T05:14:52;101658.28;;;24.01;27.90
83557;BME280;73523;55.740;13.276;2024-03-08T05:17:19;101649.97;;;24.01;27.75
83557;BME280;73523;55.740;13.276;2024-03-08T05:19:44;101648.03;;;24.01;27.68
83557;BME280;73523;55.740;13.276;2024-03-08T05:22:09;101650.81;;;24.01;27.73
83557;BME280;73523;55.740;13.276;2024-03-08T05:24:35;101652.50;;;24.02;27.57
83557;BME280;73523;55.740;13.276;2024-03-08T05:27:00;101651.66;;;24.02;27.41
83557;BME280;73523;55.740;13.276;2024-03-08T05:29:26;101656.94;;;24.03;27.33
83557;BME280;73523;55.740;13.276;2024-03-08T05:31:52;101649.97;;;24.01;27.53
83557;BME280;73523;55.740;13.276;2024-03-08T05:34:17;101659.13;;;24.01;27.64
83557;BME280;73523;55.740;13.276;2024-03-08T05:36:45;101654.91;;;23.99;27.58
83557;BME280;73523;55.740;13.276;2024-03-08T05:39:14;101651.53;;;23.97;27.44
83557;BME280;73523;55.740;13.276;2024-03-08T05:41:39;101655.75;;;23.99;27.49
83557;BME280;73523;55.740;13.276;2024-03-08T05:44:05;101653.22;;;23.98;27.70
83557;BME280;73523;55.740;13.276;2024-03-08T05:46:31;101651.91;;;24.00;27.29
83557;BME280;73523;55.740;13.276;2024-03-08T05:48:56;101660.22;;;24.00;27.37
83557;BME280;73523;55.740;13.276;2024-03-08T05:51:24;101657.44;;;24.00;27.35
83557;BME280;73523;55.740;13.276;2024-03-08T05:53:51;101659.13;;;24.01;27.26
83557;BME280;73523;55.740;13.276;2024-03-08T05:56:18;101659.97;;;24.02;27.51
83557;BME280;73523;55.740;13.276;2024-03-08T05:58:43;101648.88;;;24.02;27.44
83557;BME280;73523;55.740;13.276;2024-03-08T06:01:09;101658.28;;;24.01;27.14
83557;BME280;73523;55.740;13.276;2024-03-08T06:03:38;101652.50;;;24.02;27.35
83557;BME280;73523;55.740;13.276;2024-03-08T06:06:09;101657.75;;;24.04;27.12
83557;BME280;73523;55.740;13.276;2024-03-08T06:08:34;101652.22;;;24.04;27.36
83557;BME280;73523;55.740;13.276;2024-03-08T06:11:00;101654.75;;;24.05;27.43
83557;BME280;73523;55.740;13.276;2024-03-08T06:13:27;101652.81;;;24.06;27.20
83557;BME280;73523;55.740;13.276;2024-03-08T06:15:53;101641.50;;;24.08;27.17
83557;BME280;73523;55.740;13.276;2024-03-08T06:18:18;101657.03;;;24.09;26.91
83557;BME280;73523;55.740;13.276;2024-03-08T06:20:43;101657.63;;;24.11;26.89
83557;BME280;73523;55.740;13.276;2024-03-08T06:23:09;101661.00;;;24.13;27.16
83557;BME280;73523;55.740;13.276;2024-03-08T06:25:34;101663.25;;;24.16;27.15
83557;BME280;73523;55.740;13.276;2024-03-08T06:28:00;101661.34;;;24.16;26.77
83557;BME280;73523;55.740;13.276;2024-03-08T06:30:25;101658.31;;;24.18;26.95
83557;BME280;73523;55.740;13.276;2024-03-08T06:32:51;101660.84;;;24.19;26.83
83557;BME280;73523;55.740;13.276;2024-03-08T06:35:16;101645.06;;;24.20;26.75
83557;BME280;73523;55.740;13.276;2024-03-08T06:37:42;101655.69;;;24.23;26.92
83557;BME280;73523;55.740;13.276;2024-03-08T06:40:09;101654.84;;;24.22;26.89
83557;BME280;73523;55.740;13.276;2024-03-08T06:42:39;101657.63;;;24.22;26.75
83557;BME280;73523;55.740;13.276;2024-03-08T06:45:05;101656.53;;;24.23;27.17
83557;BME280;73523;55.740;13.276;2024-03-08T06:47:31;101645.44;;;24.23;26.85
83557;BME280;73523;55.740;13.276;2024-03-08T06:49:59;101647.13;;;24.24;27.11
83557;BME280;73523;55.740;13.276;2024-03-08T06:52:25;101653.53;;;24.25;26.85
83557;BME280;73523;55.740;13.276;2024-03-08T06:54:50;101656.28;;;24.25;26.83
83557;BME280;73523;55.740;13.276;2024-03-08T06:57:17;101654.59;;;24.24;27.19
83557;BME280;73523;55.740;13.276;2024-03-08T06:59:43;101652.69;;;24.24;26.95
83557;BME280;73523;55.740;13.276;2024-03-08T07:02:09;101657.97;;;24.26;26.92
83557;BME280;73523;55.740;13.276;2024-03-08T07:04:35;101658.81;;;24.26;27.18
83557;BME280;73523;55.740;13.276;2024-03-08T07:07:06;101654.94;;;24.27;27.35
83557;BME280;73523;55.740;13.276;2024-03-08T07:09:37;101651.06;;;24.28;26.90
83557;BME280;73523;55.740;13.276;2024-03-08T07:12:03;101650.59;;;24.31;26.82
83557;BME280;73523;55.740;13.276;2024-03-08T07:14:29;101655.03;;;24.32;27.17
83557;BME280;73523;55.740;13.276;2024-03-08T07:16:56;101655.88;;;24.33;26.81
83557;BME280;73523;55.740;13.276;2024-03-08T07:19:21;101653.72;;;24.35;26.78
83557;BME280;73523;55.740;13.276;2024-03-08T07:21:47;101649.25;;;24.34;27.00
83557;BME280;73523;55.740;13.276;2024-03-08T07:24:13;101657.06;;;24.37;26.92
83557;BME280;73523;55.740;13.276;2024-03-08T07:26:45;101650.16;;;24.39;26.77
83557;BME280;73523;55.740;13.276;2024-03-08T07:29:15;101649.69;;;24.42;26.73
83557;BME280;73523;55.740;13.276;2024-03-08T07:31:40;101653.28;;;24.43;26.82
83557;BME280;73523;55.740;13.276;2024-03-08T07:34:27;101647.50;;;24.45;26.36
83557;BME280;73523;55.740;13.276;2024-03-08T07:36:57;101652.81;;;24.46;26.46
83557;BME280;73523;55.740;13.276;2024-03-08T07:39:22;101647.00;;;24.48;26.53
83557;BME280;73523;55.740;13.276;2024-03-08T07:41:49;101654.00;;;24.50;26.74
83557;BME280;73523;55.740;13.276;2024-03-08T07:44:15;101646.53;;;24.51;26.87
83557;BME280;73523;55.740;13.276;2024-03-08T07:46:40;101645.41;;;24.52;26.87
83557;BME280;73523;55.740;13.276;2024-03-08T07:49:07;101650.69;;;24.53;26.63
83557;BME280;73523;55.740;13.276;2024-03-08T07:51:36;101651.53;;;24.54;26.66
83557;BME280;73523;55.740;13.276;2024-03-08T07:54:02;101639.38;;;24.55;26.77
83557;BME280;73523;55.740;13.276;2024-03-08T07:56:29;101642.97;;;24.55;26.84
83557;BME280;73523;55.740;13.276;2024-03-08T07:58:54;101638.28;;;24.56;26.65
83557;BME280;73523;55.740;13.276;2024-03-08T08:01:20;101631.91;;;24.55;26.71
83557;BME280;73523;55.740;13.276;2024-03-08T08:03:46;101634.66;;;24.55;26.95
83557;BME280;73523;55.740;13.276;2024-03-08T08:06:12;101624.34;;;24.51;26.72
83557;BME280;73523;55.740;13.276;2024-03-08T08:08:44;101635.00;;;24.59;26.83
83557;BME280;73523;55.740;13.276;2024-03-08T08:11:09;101634.41;;;24.57;27.24
83557;BME280;73523;55.740;13.276;2024-03-08T08:13:36;101627.19;;;24.56;26.76
83557;BME280;73523;55.740;13.276;2024-03-08T08:16:03;101627.19;;;24.56;27.01
83557;BME280;73523;55.740;13.276;2024-03-08T08:18:29;101637.19;;;24.57;26.82
83557;BME280;73523;55.740;13.276;2024-03-08T08:20:55;101636.94;;;24.58;26.92
83557;BME280;73523;55.740;13.276;2024-03-08T08:23:20;101630.56;;;24.58;26.99
83557;BME280;73523;55.740;13.276;2024-03-08T08:25:46;101625.84;;;24.58;26.78
83557;BME280;73523;55.740;13.276;2024-03-08T08:28:17;101632.00;;;24.60;27.06
83557;BME280;73523;55.740;13.276;2024-03-08T08:30:44;101627.53;;;24.59;26.79
83557;BME280;73523;55.740;13.276;2024-03-08T08:33:09;101630.06;;;24.61;26.76
83557;BME280;73523;55.740;13.276;2024-03-08T08:35:36;101627.88;;;24.63;27.05
83557;BME280;73523;55.740;13.276;2024-03-08T08:38:03;101622.34;;;24.63;26.83
83557;BME280;73523;55.740;13.276;2024-03-08T08:40:29;101625.69;;;24.65;26.82
83557;BME280;73523;55.740;13.276;2024-03-08T08:42:56;101621.81;;;24.66;26.75
83557;BME280;73523;55.740;13.276;2024-03-08T08:45:22;101620.72;;;24.67;27.00
83557;BME280;73523;55.740;13.276;2024-03-08T08:47:48;101614.94;;;24.68;26.97
83557;BME280;73523;55.740;13.276;2024-03-08T08:50:15;101616.63;;;24.69;26.61
83557;BME280;73523;55.740;13.276;2024-03-08T08:52:41;101611.91;;;24.70;26.79
83557;BME280;73523;55.740;13.276;2024-03-08T08:55:09;101609.47;;;24.73;26.86
83557;BME280;73523;55.740;13.276;2024-03-08T08:57:40;101606.47;;;24.75;26.78
83557;BME280;73523;55.740;13.276;2024-03-08T09:00:05;101604.84;;;24.79;26.89
83557;BME280;73523;55.740;13.276;2024-03-08T09:02:33;101604.59;;;24.81;26.97
83557;BME280;73523;55.740;13.276;2024-03-08T09:04:59;101603.25;;;24.83;26.98
83557;BME280;73523;55.740;13.276;2024-03-08T09:07:26;101603.00;;;24.85;27.00
83557;BME280;73523;55.740;13.276;2024-03-08T09:09:53;101607.47;;;24.86;27.17
83557;BME280;73523;55.740;13.276;2024-03-08T09:12:22;101601.97;;;24.91;26.95
83557;BME280;73523;55.740;13.276;2024-03-08T09:14:47;101609.00;;;24.93;27.06
83557;BME280;73523;55.740;13.276;2024-03-08T09:17:13;101598.50;;;24.95;27.09
83557;BME280;73523;55.740;13.276;2024-03-08T09:19:42;101594.13;;;24.99;27.17
83557;BME280;73523;55.740;13.276;2024-03-08T09:22:08;101599.97;;;25.03;26.90
83557;BME280;73523;55.740;13.276;2024-03-08T09:24:33;101598.38;;;25.07;27.00
83557;BME280;73523;55.740;13.276;2024-03-08T09:26:59;101598.72;;;25.10;26.75
83557;BME280;73523;55.740;13.276;2024-03-08T09:29:24;101597.34;;;25.13;26.93
83557;BME280;73523;55.740;13.276;2024-03-08T09:31:49;101588.53;;;25.16;26.73
83557;BME280;73523;55.740;13.276;2024-03-08T09:34:15;101585.00;;;25.21;26.61
83557;BME280;73523;55.740;13.276;2024-03-08T09:36:40;101586.97;;;25.25;26.81
83557;BME280;73523;55.740;13.276;2024-03-08T09:39:06;101582.59;;;25.29;26.70
83557;BME280;73523;55.740;13.276;2024-03-08T09:41:33;101578.22;;;25.33;26.64
83557;BME280;73523;55.740;13.276;2024-03-08T09:43:59;101588.78;;;25.36;26.68
83557;BME280;73523;55.740;13.276;2024-03-08T09:46:25;101586.59;;;25.38;26.66
83557;BME280;73523;55.740;13.276;2024-03-08T09:48:53;101588.28;;;25.39;26.56
83557;BME280;73523;55.740;13.276;2024-03-08T09:51:22;101585.25;;;25.41;26.90
83557;BME280;73523;55.740;13.276;2024-03-08T09:53:52;101585.84;;;25.43;26.75
83557;BME280;73523;55.740;13.276;2024-03-08T09:56:19;101583.13;;;25.48;26.63
83557;BME280;73523;55.740;13.276;2024-03-08T09:58:44;101576.75;;;25.47;26.41
83557;BME280;73523;55.740;13.276;2024-03-08T10:01:39;101580.69;;;25.52;26.57
83557;BME280;73523;55.740;13.276;2024-03-08T10:04:04;101576.56;;;25.54;26.70
83557;BME280;73523;55.740;13.276;2024-03-08T10:06:30;101575.47;;;25.55;26.53
83557;BME280;73523;55.740;13.276;2024-03-08T10:08:56;101566.34;;;25.60;26.55
83557;BME280;73523;55.740;13.276;2024-03-08T10:11:22;101571.41;;;25.63;26.36
83557;BME280;73523;55.740;13.276;2024-03-08T10:13:48;101572.84;;;25.65;26.47
83557;BME280;73523;55.740;13.276;2024-03-08T10:16:15;101564.00;;;25.68;26.65
83557;BME280;73523;55.740;13.276;2024-03-08T10:18:42;101560.41;;;25.73;26.36
83557;BME280;73523;55.740;13.276;2024-03-08T10:21:08;101561.00;;;25.75;26.50
83557;BME280;73523;55.740;13.276;2024-03-08T10:23:35;101554.94;;;25.78;26.31
83557;BME280;73523;55.740;13.276;2024-03-08T10:26:20;101561.41;;;25.83;26.28
83557;BME280;73523;55.740;13.276;2024-03-08T10:28:48;101564.47;;;25.87;26.43
83557;BME280;73523;55.740;13.276;2024-03-08T10:31:17;101557.56;;;25.90;26.29
83557;BME280;73523;55.740;13.276;2024-03-08T10:33:43;101551.75;;;25.91;26.11
83557;BME280;73523;55.740;13.276;2024-03-08T10:36:10;101553.16;;;25.94;26.35
83557;BME280;73523;55.740;13.276;2024-03-08T10:38:37;101550.69;;;25.97;26.37
83557;BME280;73523;55.740;13.276;2024-03-08T10:41:06;101557.66;;;26.00;26.16
83557;BME280;73523;55.740;13.276;2024-03-08T10:43:40;101553.53;;;26.02;26.07
83557;BME280;73523;55.740;13.276;2024-03-08T10:46:23;101548.28;;;26.06;25.95
83557;BME280;73523;55.740;13.276;2024-03-08T10:48:55;101547.19;;;26.07;26.21
83557;BME280;73523;55.740;13.276;2024-03-08T10:51:24;101548.06;;;26.12;25.84
83557;BME280;73523;55.740;13.276;2024-03-08T10:53:51;101553.34;;;26.14;26.10
83557;BME280;73523;55.740;13.276;2024-03-08T10:56:17;101544.50;;;26.17;26.16
83557;BME280;73523;55.740;13.276;2024-03-08T10:58:42;101532.03;;;26.19;26.21
83557;BME280;73523;55.740;13.276;2024-03-08T11:01:09;101536.19;;;26.22;26.02
83557;BME280;73523;55.740;13.276;2024-03-08T11:06:05;101534.34;;;26.28;26.09
83557;BME280;73523;55.740;13.276;2024-03-08T11:08:31;101529.38;;;26.30;26.13
83557;BME280;73523;55.740;13.276;2024-03-08T11:10:59;101529.94;;;26.32;25.67
83557;BME280;73523;55.740;13.276;2024-03-08T11:13:37;101529.66;;;26.33;25.74
83557;BME280;73523;55.740;13.276;2024-03-08T11:16:09;101530.22;;;26.35;25.93
83557;BME280;73523;55.740;13.276;2024-03-08T11:18:35;101524.16;;;26.38;25.95
83557;BME280;73523;55.740;13.276;2024-03-08T11:21:04;101523.03;;;26.39;25.94
83557;BME280;73523;55.740;13.276;2024-03-08T11:23:37;101517.50;;;26.39;25.74
83557;BME280;73523;55.740;13.276;2024-03-08T11:26:03;101515.03;;;26.43;25.79
83557;BME280;73523;55.740;13.276;2024-03-08T11:28:33;101509.47;;;26.43;25.97
83557;BME280;73523;55.740;13.276;2024-03-08T11:33:27;101503.09;;;26.47;25.83
83557;BME280;73523;55.740;13.276;2024-03-08T11:36:11;101508.97;;;26.51;25.56
83557;BME280;73523;55.740;13.276;2024-03-08T11:38:45;101507.00;;;26.51;25.71
83557;BME280;73523;55.740;13.276;2024-03-08T11:41:14;101503.97;;;26.53;25.98
83557;BME280;73523;55.740;13.276;2024-03-08T11:43:40;101500.94;;;26.54;25.72
83557;BME280;73523;55.740;13.276;2024-03-08T11:46:10;101497.88;;;26.56;26.05
83557;BME280;73523;55.740;13.276;2024-03-08T11:48:37;101497.88;;;26.56;25.76
83557;BME280;73523;55.740;13.276;2024-03-08T11:51:03;101493.72;;;26.59;25.77
83557;BME280;73523;55.740;13.276;2024-03-08T11:53:30;101499.00;;;26.60;25.79
83557;BME280;73523;55.740;13.276;2024-03-08T11:56:06;101495.97;;;26.62;25.58
83557;BME280;73523;55.740;13.276;2024-03-08T11:58:31;101490.97;;;26.64;25.74
83557;BME280;73523;55.740;13.276;2024-03-08T12:01:03;101493.75;;;26.64;25.75
83557;BME280;73523;55.740;13.276;2024-03-08T12:03:30;101490.97;;;26.64;25.81
83557;BME280;73523;55.740;13.276;2024-03-08T12:05:59;101481.25;;;26.66;25.48
83557;BME280;73523;55.740;13.276;2024-03-08T12:08:24;101482.94;;;26.67;25.70
83557;BME280;73523;55.740;13.276;2024-03-08T12:10:53;101482.94;;;26.67;25.37
83557;BME280;73523;55.740;13.276;2024-03-08T12:13:31;101477.09;;;26.69;25.57
83557;BME280;73523;55.740;13.276;2024-03-08T12:15:57;101473.19;;;26.70;25.72
83557;BME280;73523;55.740;13.276;2024-03-08T12:18:26;101471.25;;;26.70;25.65
83557;BME280;73523;55.740;13.276;2024-03-08T12:21:12;101474.59;;;26.72;25.35
83557;BME280;73523;55.740;13.276;2024-03-08T12:23:46;101460.13;;;26.70;25.75
83557;BME280;73523;55.740;13.276;2024-03-08T12:26:24;101456.81;;;26.73;25.86
83557;BME280;73523;55.740;13.276;2024-03-08T12:28:49;101460.16;;;26.75;25.48
83557;BME280;73523;55.740;13.276;2024-03-08T12:31:16;101459.34;;;26.75;25.76
83557;BME280;73523;55.740;13.276;2024-03-08T12:33:52;101459.06;;;26.76;25.32
83557;BME280;73523;55.740;13.276;2024-03-08T12:36:18;101453.50;;;26.76;25.67
83557;BME280;73523;55.740;13.276;2024-03-08T12:38:47;101450.47;;;26.78;25.56
83557;BME280;73523;55.740;13.276;2024-03-08T12:41:19;101452.97;;;26.79;25.79
83557;BME280;73523;55.740;13.276;2024-03-08T12:43:46;101443.53;;;26.80;25.41